Sacul, Texas
Current Conditions -  °F | °C
As of 2:35 AM on Saturday 29 Nov 2014 (Local Time) from KJSO Reporting Station
Clear Clear  
Wind Chill: 57°   Ceiling: Unl
Heat Index: 57°   Visibility: 10mi
Dew Point: 56°   Wind: 10mph
Humidity: 95%   Direction: 200°SSW
Pressure: 30.07"   Gusts: NA
Location:  31.82°N, 94.92°W
Report Text: KJSO 290835Z AUTO 20009KT 10SM CLR 13/13 A3007 RMK AO2 T01400132
Loading
Personal Weather Stations






























Interactive Weather Map New forecast layout! Learn more

10-Day Weather Forecast

Advertisements
Track Severe Weather on mobile